createdAt,value
2019-03-25T00:01:04.778Z,69.04
2019-03-25T00:03:33.949Z,69.12
2019-03-25T00:06:03.079Z,69.29
2019-03-25T00:08:32.214Z,69.23
2019-03-25T00:11:01.300Z,69.21
2019-03-25T00:13:30.418Z,69.12
2019-03-25T00:15:59.893Z,69.31
2019-03-25T00:18:28.979Z,69.78
2019-03-25T00:20:58.075Z,69.86
2019-03-25T00:23:27.460Z,69.82
2019-03-25T00:25:56.557Z,70.08
2019-03-25T00:28:25.668Z,70.56
2019-03-25T00:30:54.756Z,70.90
2019-03-25T00:33:23.872Z,71.20
2019-03-25T00:35:52.973Z,70.99
2019-03-25T00:38:24.596Z,71.16
2019-03-25T00:40:54.962Z,71.16
2019-03-25T00:43:26.208Z,71.08
2019-03-25T00:45:55.291Z,70.81
2019-03-25T00:48:24.723Z,70.70
2019-03-25T00:50:54.183Z,70.40
2019-03-25T00:53:23.339Z,70.68
2019-03-25T00:55:52.435Z,70.50
2019-03-25T00:58:21.553Z,70.01
2019-03-25T01:00:50.727Z,69.76
2019-03-25T01:03:19.768Z,69.15
2019-03-25T01:05:49.190Z,69.31
2019-03-25T01:08:18.298Z,69.57
2019-03-25T01:10:48.067Z,69.32
2019-03-25T01:13:17.948Z,68.90
2019-03-25T01:15:50.153Z,68.72
2019-03-25T01:18:19.977Z,68.51
2019-03-25T01:20:49.395Z,68.86
2019-03-25T01:23:19.179Z,68.67
2019-03-25T01:25:48.285Z,68.64
2019-03-25T01:28:17.366Z,68.92
2019-03-25T01:30:46.496Z,68.49
2019-03-25T01:33:15.978Z,68.84
2019-03-25T01:35:46.198Z,68.77
2019-03-25T01:38:18.807Z,68.51
2019-03-25T01:40:47.912Z,68.02
2019-03-25T01:43:20.475Z,67.64
2019-03-25T01:45:50.307Z,67.01
2019-03-25T01:48:19.781Z,66.67
2019-03-25T01:50:49.222Z,66.51
2019-03-25T01:53:18.390Z,66.33
2019-03-25T01:55:47.784Z,66.29
2019-03-25T01:58:16.883Z,66.13
2019-03-25T02:00:49.571Z,66.12
2019-03-25T02:03:18.685Z,65.94
2019-03-25T02:05:47.776Z,65.41
2019-03-25T02:08:17.185Z,65.73
2019-03-25T02:10:46.330Z,65.69
2019-03-25T02:13:15.416Z,65.60
2019-03-25T02:15:44.589Z,65.52
2019-03-25T02:18:13.637Z,65.46
2019-03-25T02:20:44.564Z,65.00
2019-03-25T02:23:13.741Z,64.85
2019-03-25T02:25:43.190Z,64.66
2019-03-25T02:28:12.305Z,64.64
2019-03-25T02:30:42.111Z,64.48
2019-03-25T02:33:14.319Z,64.19
2019-03-25T02:35:43.718Z,64.17
2019-03-25T02:38:12.790Z,64.11
2019-03-25T02:40:41.893Z,63.91
2019-03-25T02:43:11.702Z,64.02
2019-03-25T02:45:41.535Z,64.73
2019-03-25T02:48:11.292Z,65.62
2019-03-25T02:50:40.423Z,67.12
2019-03-25T02:53:09.871Z,67.96
2019-03-25T02:55:41.900Z,68.59
2019-03-25T02:58:10.125Z,69.40
2019-03-25T03:00:41.537Z,70.58
2019-03-25T03:03:10.620Z,71.21
2019-03-25T03:05:43.108Z,72.16
2019-03-25T03:08:12.220Z,72.44
2019-03-25T03:10:41.671Z,72.59
2019-03-25T03:13:10.790Z,72.12
2019-03-25T03:15:39.894Z,73.68
2019-03-25T03:18:08.991Z,74.51
2019-03-25T03:20:38.104Z,75.17
2019-03-25T03:23:10.649Z,75.17
2019-03-25T03:25:55.699Z,75.81
2019-03-25T03:28:10.942Z,75.53
2019-03-25T03:30:40.402Z,75.47
2019-03-25T03:33:09.509Z,74.54
2019-03-25T03:35:38.600Z,75.09
2019-03-25T03:38:07.706Z,74.87
2019-03-25T03:40:37.541Z,74.80
2019-03-25T03:43:06.679Z,74.58
2019-03-25T03:45:35.795Z,74.14
2019-03-25T03:48:04.921Z,74.10
2019-03-25T03:50:34.342Z,73.85
2019-03-25T03:53:06.483Z,73.42
2019-03-25T03:55:35.609Z,73.46
2019-03-25T03:58:07.531Z,73.11
2019-03-25T04:00:38.673Z,73.19
2019-03-25T04:03:07.746Z,73.41
2019-03-25T04:05:38.803Z,73.90
2019-03-25T04:08:07.926Z,75.87
2019-03-25T04:10:38.400Z,76.90
2019-03-25T04:13:07.476Z,76.90
2019-03-25T04:15:36.574Z,78.09
2019-03-25T04:18:05.641Z,78.76
2019-03-25T04:20:35.476Z,78.63
2019-03-25T04:23:05.289Z,78.45
2019-03-25T04:25:36.645Z,79.22
2019-03-25T04:28:08.401Z,79.02
2019-03-25T04:30:37.513Z,79.47
2019-03-25T04:33:06.946Z,80.34
2019-03-25T04:35:36.128Z,79.71
2019-03-25T04:38:07.225Z,78.88
2019-03-25T04:40:36.583Z,79.82
2019-03-25T04:43:05.690Z,80.04
2019-03-25T04:45:34.823Z,80.27
2019-03-25T04:48:03.962Z,79.93
2019-03-25T04:50:33.699Z,79.30
2019-03-25T04:53:02.797Z,79.72
2019-03-25T04:55:31.894Z,79.76
2019-03-25T04:58:00.988Z,79.79
2019-03-25T05:00:37.092Z,78.01
2019-03-25T05:03:06.211Z,78.52
2019-03-25T05:05:36.197Z,78.91
2019-03-25T05:08:08.070Z,79.42
2019-03-25T05:10:40.369Z,78.64
2019-03-25T05:13:09.458Z,78.54
2019-03-25T05:15:38.532Z,78.05
2019-03-25T05:18:07.985Z,78.27
2019-03-25T05:20:40.169Z,78.42
2019-03-25T05:23:09.278Z,78.70
2019-03-25T05:25:39.076Z,78.44
2019-03-25T05:28:08.183Z,78.33
2019-03-25T05:30:37.371Z,78.31
2019-03-25T05:33:07.106Z,78.31
2019-03-25T05:35:36.504Z,78.80
2019-03-25T05:38:05.647Z,78.96
2019-03-25T05:40:35.384Z,77.25
2019-03-25T05:43:04.488Z,76.40
2019-03-25T05:45:33.915Z,76.85
2019-03-25T05:48:03.012Z,77.15
2019-03-25T05:50:33.069Z,77.08
2019-03-25T05:53:02.157Z,77.85
2019-03-25T05:55:32.528Z,78.38
2019-03-25T05:58:01.618Z,77.27
2019-03-25T06:00:33.571Z,76.30
2019-03-25T06:03:03.090Z,76.76
2019-03-25T06:05:32.176Z,77.49
2019-03-25T06:08:07.864Z,77.50
2019-03-25T06:10:37.256Z,76.92
2019-03-25T06:13:07.971Z,77.30
2019-03-25T06:15:37.802Z,77.01
2019-03-25T06:18:06.910Z,76.29
2019-03-25T06:20:36.033Z,76.74
2019-03-25T06:23:05.121Z,76.36
2019-03-25T06:25:34.485Z,76.36
2019-03-25T06:28:03.616Z,76.32
2019-03-25T06:30:32.686Z,76.44
2019-03-25T06:33:11.955Z,75.95
2019-03-25T06:35:36.799Z,76.05
2019-03-25T06:38:06.200Z,76.39
2019-03-25T06:40:35.314Z,75.98
2019-03-25T06:43:04.468Z,76.39
2019-03-25T06:45:33.564Z,76.24
2019-03-25T06:48:02.655Z,75.58
2019-03-25T06:50:36.998Z,75.74
2019-03-25T06:53:06.453Z,75.93
2019-03-25T06:55:35.837Z,75.34
2019-03-25T06:58:05.318Z,75.43
2019-03-25T07:00:34.433Z,75.02
2019-03-25T07:03:04.249Z,73.91
2019-03-25T07:05:34.406Z,72.99
2019-03-25T07:08:03.426Z,73.56
2019-03-25T07:10:36.549Z,73.96
2019-03-25T07:13:07.844Z,73.17
2019-03-25T07:15:40.170Z,72.12
2019-03-25T07:18:09.473Z,71.27
2019-03-25T07:20:39.530Z,72.08
2019-03-25T07:23:08.702Z,71.36
2019-03-25T07:25:38.301Z,71.33
2019-03-25T07:28:09.444Z,72.60
2019-03-25T07:30:39.307Z,71.23
2019-03-25T07:33:11.941Z,72.34
2019-03-25T07:35:41.008Z,71.10
2019-03-25T07:38:12.025Z,70.87
2019-03-25T07:40:41.108Z,71.19
2019-03-25T07:43:10.219Z,71.23
2019-03-25T07:45:39.676Z,71.83
2019-03-25T07:48:09.144Z,71.43
2019-03-25T07:50:38.295Z,71.59
2019-03-25T07:53:07.399Z,71.80
2019-03-25T07:55:38.704Z,71.62
2019-03-25T07:58:08.211Z,70.66
2019-03-25T08:00:37.932Z,71.60
2019-03-25T08:03:10.278Z,71.19
2019-03-25T08:05:39.385Z,70.41
2019-03-25T08:08:10.121Z,70.67
2019-03-25T08:10:39.801Z,70.37
2019-03-25T08:13:09.053Z,71.08
2019-03-25T08:15:38.470Z,71.16
2019-03-25T08:18:07.863Z,70.74
2019-03-25T08:20:37.871Z,70.34
2019-03-25T08:23:07.526Z,69.38
2019-03-25T08:25:36.630Z,69.05
2019-03-25T08:28:06.054Z,69.26
2019-03-25T08:30:35.490Z,69.65
2019-03-25T08:33:04.891Z,68.92
2019-03-25T08:35:34.419Z,69.19
2019-03-25T08:38:05.286Z,70.02
2019-03-25T08:40:35.450Z,68.16
2019-03-25T08:43:04.808Z,68.62
2019-03-25T08:45:34.229Z,68.60
2019-03-25T08:48:04.690Z,68.47
2019-03-25T08:50:34.123Z,69.92
2019-03-25T08:53:03.221Z,72.21
2019-03-25T08:55:33.232Z,73.91
2019-03-25T08:58:11.627Z,75.48
2019-03-25T09:00:33.869Z,76.66
2019-03-25T09:03:03.271Z,77.28
2019-03-25T09:05:35.723Z,77.39
2019-03-25T09:08:07.058Z,77.25
2019-03-25T09:10:36.440Z,75.68
2019-03-25T09:13:06.282Z,76.36
2019-03-25T09:15:35.358Z,74.99
2019-03-25T09:18:04.530Z,74.22
2019-03-25T09:20:33.630Z,73.56
2019-03-25T09:23:02.719Z,74.84
2019-03-25T09:25:31.918Z,74.04
2019-03-25T09:28:01.015Z,73.56
2019-03-25T09:31:12.054Z,73.39
2019-03-25T09:33:42.763Z,73.39
2019-03-25T09:36:12.234Z,71.96
2019-03-25T09:38:41.386Z,70.24
2019-03-25T09:41:10.520Z,70.45
2019-03-25T09:43:42.728Z,70.54
2019-03-25T09:46:11.796Z,69.57
2019-03-25T09:48:41.253Z,71.19
2019-03-25T09:51:10.337Z,74.47
2019-03-25T09:53:40.836Z,73.19
2019-03-25T09:56:15.851Z,72.49
2019-03-25T09:58:44.959Z,72.69
2019-03-25T10:01:14.062Z,73.68
2019-03-25T10:03:46.689Z,74.06
2019-03-25T10:06:16.393Z,74.81
2019-03-25T10:08:46.877Z,70.64
2019-03-25T10:11:15.966Z,72.52
2019-03-25T10:13:47.849Z,72.13
2019-03-25T10:16:20.775Z,71.88
2019-03-25T10:18:49.886Z,68.16
2019-03-25T10:21:22.361Z,71.72
2019-03-25T10:23:51.492Z,70.84
2019-03-25T10:26:21.094Z,71.23
2019-03-25T10:28:54.185Z,72.62
2019-03-25T10:31:23.250Z,74.46
2019-03-25T10:33:53.149Z,76.41
2019-03-25T10:36:23.543Z,76.37
2019-03-25T10:38:53.796Z,77.35
2019-03-25T10:41:23.507Z,78.05
2019-03-25T10:43:56.192Z,79.21
2019-03-25T10:46:25.948Z,79.37
2019-03-25T10:48:58.867Z,80.58
2019-03-25T10:51:28.293Z,80.05
2019-03-25T10:53:57.391Z,78.64
2019-03-25T10:56:26.496Z,76.59
2019-03-25T10:58:58.312Z,76.96
2019-03-25T11:01:28.437Z,76.10
2019-03-25T11:03:58.321Z,75.96
2019-03-25T11:06:27.469Z,74.08
2019-03-25T11:08:57.278Z,74.85
2019-03-25T11:11:32.535Z,73.83
2019-03-25T11:14:02.302Z,74.39
2019-03-25T11:16:31.885Z,73.97
2019-03-25T11:19:01.887Z,73.69
2019-03-25T11:21:31.008Z,71.49
2019-03-25T11:24:03.543Z,72.40
2019-03-25T11:26:32.959Z,72.85
2019-03-25T11:29:08.328Z,72.30
2019-03-25T11:31:36.456Z,73.42
2019-03-25T11:34:06.949Z,74.27
2019-03-25T11:36:36.057Z,75.28
2019-03-25T11:39:07.626Z,75.99
2019-03-25T11:41:36.733Z,77.75
2019-03-25T11:44:06.542Z,77.02
2019-03-25T11:46:37.696Z,78.61
2019-03-25T11:49:10.857Z,76.49
2019-03-25T11:51:39.933Z,77.17
2019-03-25T11:54:09.127Z,77.43
2019-03-25T11:56:41.789Z,77.98
2019-03-25T11:59:18.616Z,79.73
2019-03-25T12:01:42.614Z,79.20
2019-03-25T12:04:12.017Z,77.59
2019-03-25T12:06:44.771Z,75.91
2019-03-25T12:09:17.212Z,75.67
2019-03-25T12:11:46.423Z,73.50
2019-03-25T12:14:16.688Z,71.07
2019-03-25T12:16:49.143Z,69.63
2019-03-25T12:19:20.725Z,70.34
2019-03-25T12:21:50.414Z,71.05
2019-03-25T12:24:19.817Z,72.77
2019-03-25T12:26:52.257Z,75.04
2019-03-25T12:29:36.061Z,73.73
2019-03-25T12:32:01.581Z,73.38
2019-03-25T12:34:31.880Z,72.67
2019-03-25T12:37:01.094Z,73.63
2019-03-25T12:39:33.273Z,71.79
2019-03-25T12:42:02.398Z,72.94
2019-03-25T12:44:35.154Z,72.05
2019-03-25T12:47:04.660Z,70.78
2019-03-25T12:49:37.528Z,69.02
2019-03-25T12:52:06.630Z,69.39
2019-03-25T12:54:36.439Z,67.30
2019-03-25T12:57:07.320Z,69.05
2019-03-25T12:59:41.320Z,66.61
2019-03-25T13:02:08.045Z,67.85
2019-03-25T13:04:37.878Z,68.69
2019-03-25T13:07:06.989Z,69.18
2019-03-25T13:09:36.747Z,69.69
2019-03-25T13:12:05.877Z,69.33
2019-03-25T13:14:35.284Z,70.92
2019-03-25T13:17:04.518Z,72.48
2019-03-25T13:19:33.625Z,76.21
2019-03-25T13:22:03.048Z,75.20
2019-03-25T13:24:32.135Z,74.44
2019-03-25T13:27:01.249Z,74.82
2019-03-25T13:29:33.070Z,75.08
2019-03-25T13:32:02.834Z,74.22
2019-03-25T13:34:35.227Z,73.25
2019-03-25T13:37:04.329Z,72.06
2019-03-25T13:39:37.371Z,72.05
2019-03-25T13:42:06.477Z,71.54
2019-03-25T13:44:39.084Z,67.78
2019-03-25T13:47:08.865Z,67.71
2019-03-25T13:49:37.973Z,68.12
2019-03-25T13:52:08.723Z,69.04
2019-03-25T13:54:40.968Z,68.06
2019-03-25T13:57:12.525Z,67.28
2019-03-25T13:59:41.603Z,68.60
2019-03-25T14:02:11.937Z,68.92
2019-03-25T14:04:41.040Z,67.34
2019-03-25T14:07:13.742Z,67.15
2019-03-25T14:09:42.829Z,64.12
2019-03-25T14:12:15.353Z,64.18
2019-03-25T14:14:44.454Z,66.17
2019-03-25T14:17:17.189Z,66.48
2019-03-25T14:19:47.092Z,65.95
2019-03-25T14:22:16.719Z,66.05
2019-03-25T14:24:48.947Z,66.93
2019-03-25T14:27:18.063Z,68.59
2019-03-25T14:29:49.823Z,71.40
2019-03-25T14:32:22.655Z,72.09
2019-03-25T14:34:51.973Z,74.27
2019-03-25T14:37:21.443Z,74.99
2019-03-25T14:39:51.186Z,75.83
2019-03-25T14:42:20.334Z,76.60
2019-03-25T14:44:49.400Z,77.13
2019-03-25T14:47:18.539Z,78.21
2019-03-25T14:49:47.630Z,78.15
2019-03-25T14:52:16.752Z,79.87
2019-03-25T14:54:46.220Z,78.09
2019-03-25T14:57:17.274Z,76.74
2019-03-25T14:59:46.372Z,77.50
2019-03-25T15:02:19.260Z,77.80
2019-03-25T15:04:48.371Z,76.86
2019-03-25T15:07:21.225Z,77.55
2019-03-25T15:09:50.324Z,75.94
2019-03-25T15:12:19.828Z,77.13
2019-03-25T15:14:49.681Z,77.96
2019-03-25T15:21:06.862Z,77.72
2019-03-25T15:24:20.316Z,81.11
2019-03-25T15:27:16.864Z,81.55
2019-03-25T15:30:17.968Z,81.56
2019-03-25T15:33:11.581Z,81.92
2019-03-25T15:36:16.559Z,80.96
2019-03-25T15:42:01.571Z,80.16
2019-03-25T15:44:30.989Z,78.89
2019-03-25T15:47:05.097Z,78.49
2019-03-25T15:49:34.924Z,77.13
2019-03-25T15:52:04.098Z,77.42
2019-03-25T15:54:33.502Z,76.14
2019-03-25T15:57:02.982Z,76.11
2019-03-25T15:59:35.473Z,76.82
2019-03-25T16:02:07.660Z,77.39
2019-03-25T16:04:36.783Z,77.12
2019-03-25T16:07:08.998Z,76.25
2019-03-25T16:09:38.297Z,77.15
2019-03-25T16:12:07.771Z,78.10
2019-03-25T16:14:36.914Z,78.23
2019-03-25T16:17:06.033Z,77.51
2019-03-25T16:19:35.473Z,77.54
2019-03-25T16:22:04.725Z,78.68
2019-03-25T16:24:33.852Z,79.55
2019-03-25T16:27:03.010Z,78.89
2019-03-25T16:29:32.128Z,78.30
2019-03-25T16:32:01.574Z,77.78
2019-03-25T16:34:34.093Z,79.09
2019-03-25T16:37:03.619Z,78.83
2019-03-25T16:39:36.241Z,78.69
2019-03-25T16:42:08.753Z,79.18
2019-03-25T16:44:40.578Z,79.42
2019-03-25T16:47:14.285Z,78.03
2019-03-25T16:49:46.989Z,78.65
2019-03-25T16:52:16.099Z,78.20
2019-03-25T16:54:45.492Z,79.01
2019-03-25T16:57:15.126Z,78.25
2019-03-25T16:59:44.488Z,78.76
2019-03-25T17:02:13.654Z,78.48
2019-03-25T17:04:43.194Z,77.64
2019-03-25T17:07:15.468Z,78.53
2019-03-25T17:09:44.696Z,78.66
2019-03-25T17:12:16.940Z,79.11
2019-03-25T17:14:51.585Z,77.85
2019-03-25T17:17:20.711Z,77.31
2019-03-25T17:19:50.602Z,78.32
2019-03-25T17:22:21.618Z,78.58
2019-03-25T17:24:51.464Z,78.17
2019-03-25T17:27:31.102Z,77.80
2019-03-25T17:30:06.757Z,78.86
2019-03-25T17:32:36.649Z,79.08
2019-03-25T17:35:09.616Z,78.68
2019-03-25T17:37:45.185Z,79.00
2019-03-25T17:40:21.033Z,78.14
2019-03-25T17:42:57.806Z,78.36
2019-03-25T17:45:27.232Z,78.21
2019-03-25T17:47:59.691Z,78.35
2019-03-25T17:50:33.933Z,78.05
2019-03-25T17:53:06.422Z,77.73
2019-03-25T17:55:35.656Z,78.54
2019-03-25T17:58:08.221Z,78.14
2019-03-25T18:01:14.270Z,78.74
2019-03-25T18:03:43.725Z,78.74
2019-03-25T18:06:12.860Z,78.68
2019-03-25T18:08:41.968Z,78.74
2019-03-25T18:11:14.961Z,78.80
2019-03-25T18:13:44.460Z,78.45
2019-03-25T18:16:16.684Z,78.62
2019-03-25T18:18:46.864Z,79.32
2019-03-25T18:21:16.270Z,79.36
2019-03-25T18:23:46.657Z,79.87
2019-03-25T18:26:16.358Z,79.74
2019-03-25T18:28:48.541Z,80.03
2019-03-25T18:31:18.649Z,79.96
2019-03-25T18:33:51.184Z,80.71
2019-03-25T18:36:23.687Z,80.58
2019-03-25T18:38:53.104Z,81.27
2019-03-25T18:41:22.991Z,81.65
2019-03-25T18:43:52.115Z,81.86
2019-03-25T18:46:21.578Z,81.75
2019-03-25T18:48:52.763Z,82.24
2019-03-25T18:51:21.906Z,82.45
2019-03-25T18:53:54.122Z,82.73
2019-03-25T18:56:26.328Z,82.91
2019-03-25T18:58:55.507Z,82.86
2019-03-25T19:01:24.662Z,82.94
2019-03-25T19:03:59.962Z,83.61
2019-03-25T19:06:34.959Z,83.71
2019-03-25T19:09:07.022Z,84.16
2019-03-25T19:11:36.527Z,84.15
2019-03-25T19:14:11.760Z,84.26
2019-03-25T19:16:41.271Z,84.30
2019-03-25T19:19:13.162Z,83.95
2019-03-25T19:21:46.123Z,83.77
2019-03-25T19:24:19.815Z,83.46
2019-03-25T19:26:47.889Z,83.66
2019-03-25T19:29:20.427Z,83.54
2019-03-25T19:31:49.671Z,83.76
2019-03-25T19:34:21.922Z,83.63
2019-03-25T19:36:51.457Z,83.51
2019-03-25T19:39:20.526Z,83.86
2019-03-25T19:41:50.365Z,84.08
2019-03-25T19:44:19.505Z,84.40
2019-03-25T19:46:48.631Z,84.33
2019-03-25T19:49:18.425Z,84.10
2019-03-25T19:51:47.536Z,83.95
2019-03-25T19:54:16.660Z,83.87
2019-03-25T19:56:48.514Z,84.40
2019-03-25T19:59:18.302Z,84.30
2019-03-25T20:01:47.858Z,84.17
2019-03-25T20:04:17.264Z,84.00
2019-03-25T20:06:46.393Z,84.01
2019-03-25T20:09:15.508Z,83.64
2019-03-25T20:11:47.355Z,83.54
2019-03-25T20:14:16.431Z,83.50
2019-03-25T20:16:45.617Z,82.63
2019-03-25T20:19:14.666Z,81.87
2019-03-25T20:21:45.800Z,81.93
2019-03-25T20:24:15.765Z,81.47
2019-03-25T20:26:45.279Z,81.84
2019-03-25T20:29:14.667Z,81.39
2019-03-25T20:31:43.801Z,81.65
2019-03-25T20:34:13.231Z,81.32
2019-03-25T20:36:46.436Z,81.48
2019-03-25T20:39:15.566Z,81.40
2019-03-25T20:41:44.716Z,81.38
2019-03-25T20:44:14.652Z,81.32
2019-03-25T20:46:45.129Z,81.42
2019-03-25T20:49:16.629Z,81.41
2019-03-25T20:51:46.115Z,81.65
2019-03-25T20:54:15.223Z,81.74
2019-03-25T20:56:44.414Z,81.90
2019-03-25T20:59:16.314Z,81.98
2019-03-25T21:01:45.634Z,82.07
2019-03-25T21:04:14.742Z,82.04
2019-03-25T21:06:44.112Z,82.34
2019-03-25T21:09:13.616Z,82.37
2019-03-25T21:11:46.394Z,81.97
2019-03-25T21:14:15.496Z,82.20
2019-03-25T21:16:44.628Z,82.25
2019-03-25T21:19:15.140Z,82.10
2019-03-25T21:21:47.574Z,81.85
2019-03-25T21:24:19.187Z,81.98
2019-03-25T21:26:50.156Z,81.92
2019-03-25T21:29:19.571Z,81.79
2019-03-25T21:31:48.751Z,81.85
2019-03-25T21:34:18.038Z,81.79
2019-03-25T21:36:47.644Z,81.92
2019-03-25T21:39:16.807Z,82.30
2019-03-25T21:41:46.287Z,81.96
2019-03-25T21:44:17.587Z,81.72
2019-03-25T21:46:46.751Z,81.87
2019-03-25T21:49:16.424Z,82.26
2019-03-25T21:51:45.550Z,82.08
2019-03-25T21:54:14.683Z,82.23
2019-03-25T21:56:43.791Z,82.22
2019-03-25T21:59:12.921Z,82.23
2019-03-25T22:01:42.116Z,82.34
2019-03-25T22:04:14.766Z,82.68
2019-03-25T22:06:44.595Z,82.65
2019-03-25T22:09:14.480Z,82.48
2019-03-25T22:11:43.910Z,82.39
2019-03-25T22:14:13.731Z,82.52
2019-03-25T22:16:42.856Z,82.57
2019-03-25T22:19:16.019Z,82.80
2019-03-25T22:21:45.129Z,82.87
2019-03-25T22:24:14.591Z,82.79
2019-03-25T22:26:44.001Z,83.01
2019-03-25T22:29:13.333Z,83.03
2019-03-25T22:31:42.452Z,83.12
2019-03-25T22:34:14.973Z,82.78
2019-03-25T22:36:47.217Z,82.81
2019-03-25T22:39:16.392Z,82.82
2019-03-25T22:41:47.887Z,82.81
2019-03-25T22:44:16.996Z,83.03
2019-03-25T22:46:46.120Z,83.43
2019-03-25T22:49:21.634Z,83.79
2019-03-25T22:51:50.736Z,83.82
2019-03-25T22:54:22.675Z,83.86
2019-03-25T22:56:57.321Z,83.78
2019-03-25T22:59:29.728Z,83.74
2019-03-25T23:01:58.854Z,83.57
2019-03-25T23:04:29.258Z,83.19
2019-03-25T23:06:58.374Z,83.30
2019-03-25T23:09:27.837Z,83.22
2019-03-25T23:12:02.242Z,82.74
2019-03-25T23:14:32.099Z,82.91
2019-03-25T23:17:01.236Z,83.13
2019-03-25T23:19:30.710Z,83.39
2019-03-25T23:21:59.836Z,83.42
2019-03-25T23:24:32.029Z,83.88
2019-03-25T23:27:01.153Z,84.11
2019-03-25T23:29:31.931Z,84.01
2019-03-25T23:32:01.053Z,84.14
2019-03-25T23:34:31.846Z,84.15
2019-03-25T23:37:01.620Z,83.99
2019-03-25T23:39:34.183Z,84.02
2019-03-25T23:42:08.453Z,83.89
2019-03-25T23:44:41.322Z,83.87
2019-03-25T23:47:11.139Z,84.12
2019-03-25T23:49:40.310Z,83.87
2019-03-25T23:52:10.050Z,84.17
2019-03-25T23:54:39.167Z,84.10
2019-03-25T23:57:08.250Z,84.50
2019-03-25T23:59:37.731Z,84.69
